Terminal Aerodrome Forecast
Issued by NWS

Home | Current Version | Previous Version | Text Only | Print | Product List | Glossary On
Versions: 1 2 3 4 5 6 7 8 9 10 11 12 13 14 15 16 17 18 19 20 21 22 23 24 25 26 27 28 29 30
391
FTUS43 KDVN 231249 AAA
TAFCID
TAF AMD
KCID 231249Z 2313/2412 35008KT P6SM BKN006 BKN250
     FM231400 34010KT P6SM SCT006 BKN012 BKN250
     FM231600 31016G22KT P6SM FEW080 SCT250
     FM240000 30008KT P6SM BKN100=

USA.gov is the U.S. government's official web portal to all federal, state and local government web resources and services.